Time;durP1;ratioP1;P1;durP2;ratioP2;P2;SDS_P1;SDS_P2;PMS_P1;PMS_P2;Temp;Humidity;BMP_temperature;BMP_pressure;BME280_temperature;BME280_humidity;BME280_pressure;Samples;Min_cycle;Max_cycle;Signal;HPM_P1;HPM_P2
2023/03/09 00:00:20;;;;;;;0.70;0.70;;;10.40;99.90;;;10.45;100.00;98123.81;5007798;28;20642;-67
2023/03/09 00:02:47;;;;;;;0.90;0.90;;;10.40;99.90;;;10.43;100.00;98115.38;4992558;28;21014;-68
2023/03/09 00:05:17;;;;;;;0.60;0.60;;;10.40;99.90;;;10.42;100.00;98113.72;5023221;28;20665;-66
2023/03/09 00:07:44;;;;;;;0.63;0.63;;;10.40;99.90;;;10.44;100.00;98101.34;4999462;28;20658;-66
2023/03/09 00:10:13;;;;;;;0.70;0.70;;;10.40;99.90;;;10.41;100.00;98099.09;5008260;28;20726;-67
2023/03/09 00:12:41;;;;;;;0.50;0.50;;;10.40;99.90;;;10.43;100.00;98104.94;4992351;28;21204;-66
2023/03/09 00:15:09;;;;;;;0.40;0.40;;;10.40;99.90;;;10.43;100.00;98101.50;4994779;28;20707;-66
2023/03/09 00:17:36;;;;;;;0.40;0.40;;;10.40;99.90;;;10.36;100.00;98101.38;5005118;28;20658;-66
2023/03/09 00:20:18;;;;;;;0.77;0.60;;;10.30;99.90;;;10.33;100.00;98099.09;4992078;28;20645;-66
2023/03/09 00:22:54;;;;;;;0.50;0.50;;;10.30;99.90;;;10.34;100.00;98098.13;4992802;28;20633;-67
2023/03/09 00:25:22;;;;;;;0.50;0.50;;;10.30;99.90;;;10.35;100.00;98101.56;4992429;28;20670;-66
2023/03/09 00:27:52;;;;;;;2.23;0.60;;;10.30;99.90;;;10.35;100.00;98104.94;4993260;28;20642;-67
2023/03/09 00:30:19;;;;;;;0.67;0.50;;;10.30;99.90;;;10.36;100.00;98114.41;4992628;28;20658;-66
2023/03/09 00:32:46;;;;;;;0.40;0.40;;;10.40;99.90;;;10.34;100.00;98120.78;5007696;28;21331;-67
2023/03/09 00:35:14;;;;;;;0.70;0.70;;;10.30;99.90;;;10.35;100.00;98111.97;4993062;28;20614;-66
2023/03/09 00:37:42;;;;;;;0.50;0.50;;;10.30;99.90;;;10.36;100.00;98110.97;4992327;28;20669;-66
2023/03/09 00:40:11;;;;;;;2.57;0.70;;;10.40;99.90;;;10.36;100.00;98116.19;4993315;28;20660;-68
2023/03/09 00:42:41;;;;;;;0.40;0.40;;;10.30;99.90;;;10.35;100.00;98111.97;4992067;28;20633;-67
2023/03/09 00:45:09;;;;;;;0.77;0.60;;;10.30;99.90;;;10.33;100.00;98119.94;4992950;28;20665;-67
2023/03/09 00:47:36;;;;;;;0.50;0.50;;;10.30;99.90;;;10.32;100.00;98125.34;4991256;28;20658;-68
2023/03/09 00:50:04;;;;;;;0.60;0.60;;;10.30;99.90;;;10.29;100.00;98123.88;4992288;28;20622;-67
2023/03/09 00:52:31;;;;;;;0.87;0.60;;;10.30;99.90;;;10.33;100.00;98135.59;4992668;28;20618;-66
2023/03/09 00:54:59;;;;;;;1.37;0.50;;;10.30;99.90;;;10.33;100.00;98135.59;4986035;28;20603;-66
2023/03/09 00:57:26;;;;;;;0.40;0.40;;;10.30;99.90;;;10.31;100.00;98137.53;4991917;28;21204;-69
2023/03/09 00:59:54;;;;;;;0.40;0.40;;;10.30;99.90;;;10.34;100.00;98131.19;4992600;28;20631;-67
2023/03/09 01:02:23;;;;;;;0.40;0.40;;;10.30;99.90;;;10.34;100.00;98142.44;4988528;28;21009;-67
2023/03/09 01:04:50;;;;;;;0.30;0.30;;;10.30;99.90;;;10.35;100.00;98135.44;4996113;28;21036;-66
2023/03/09 01:07:18;;;;;;;0.40;0.40;;;10.30;99.90;;;10.35;100.00;98128.41;5026888;28;21043;-67
2023/03/09 01:09:45;;;;;;;3.30;0.70;;;10.40;99.90;;;10.37;100.00;98139.47;5006364;28;21007;-67
2023/03/09 01:12:12;;;;;;;1.37;0.50;;;10.30;99.90;;;10.39;100.00;98140.13;4995621;28;20641;-67
2023/03/09 01:14:39;;;;;;;0.60;0.60;;;10.40;99.90;;;10.34;100.00;98142.44;4988550;28;20647;-66
2023/03/09 01:17:07;;;;;;;0.50;0.50;;;10.40;99.90;;;10.34;100.00;98142.44;4972201;28;20623;-67
2023/03/09 01:19:33;;;;;;;0.80;0.47;;;10.40;99.90;;;10.30;100.00;98135.94;4975922;28;21114;-67
2023/03/09 01:22:00;;;;;;;0.50;0.50;;;10.30;99.90;;;10.31;100.00;98144.56;4989614;28;20669;-68
2023/03/09 01:24:27;;;;;;;0.50;0.50;;;10.30;99.90;;;10.34;100.00;98137.22;4973999;28;20663;-67
2023/03/09 01:26:54;;;;;;;0.50;0.50;;;10.30;99.90;;;10.36;100.00;98142.25;4992771;28;20607;-66
2023/03/09 01:29:21;;;;;;;0.50;0.50;;;10.30;99.90;;;10.40;100.00;98146.16;4989534;28;20665;-68
2023/03/09 01:31:48;;;;;;;0.40;0.40;;;10.40;99.90;;;10.41;100.00;98143.41;5006842;28;20622;-67
2023/03/09 01:34:15;;;;;;;0.50;0.50;;;10.40;99.90;;;10.42;100.00;98139.78;4990469;28;21004;-66
2023/03/09 01:36:42;;;;;;;0.50;0.50;;;10.40;99.90;;;10.45;100.00;98149.88;4991179;28;20725;-68
2023/03/09 01:39:10;;;;;;;0.47;0.47;;;10.50;99.90;;;10.47;100.00;98147.09;4985208;28;20669;-66
2023/03/09 01:41:37;;;;;;;3.07;0.53;;;10.50;99.90;;;10.51;100.00;98149.22;4991849;28;20634;-68
2023/03/09 01:44:04;;;;;;;1.20;0.43;;;10.50;99.90;;;10.53;100.00;98146.44;4989357;28;20626;-66
2023/03/09 01:46:35;;;;;;;0.60;0.47;;;10.50;99.90;;;10.52;100.00;98152.63;4990688;28;20658;-65
2023/03/09 01:49:19;;;;;;;0.50;0.50;;;10.50;99.90;;;10.55;100.00;98163.53;4990635;28;20748;-66
2023/03/09 01:52:06;;;;;;;0.50;0.50;;;10.50;99.90;;;10.58;100.00;98160.59;4990187;28;20618;-67
2023/03/09 01:54:49;;;;;;;0.40;0.40;;;10.60;99.90;;;10.61;100.00;98167.25;4991786;28;20618;-69
2023/03/09 01:57:42;;;;;;;1.20;0.80;;;10.60;99.90;;;10.61;100.00;98169.84;5008613;28;20713;-67
2023/03/09 02:00:18;;;;;;;0.57;0.57;;;10.60;99.90;;;10.62;100.00;98171.47;4990396;28;20650;-66
2023/03/09 02:02:51;;;;;;;0.50;0.50;;;10.60;99.90;;;10.65;100.00;98174.56;4972494;28;21244;-67
2023/03/09 02:05:34;;;;;;;0.50;0.50;;;10.70;99.90;;;10.64;100.00;98177.34;4985422;28;20733;-68
2023/03/09 02:08:01;;;;;;;0.57;0.57;;;10.60;99.90;;;10.63;100.00;98186.13;5006003;28;20622;-66
2023/03/09 02:10:34;;;;;;;3.03;0.77;;;10.60;99.90;;;10.57;100.00;98179.81;4991142;28;20725;-66
2023/03/09 02:13:07;;;;;;;0.40;0.40;;;10.60;99.90;;;10.54;100.00;98185.34;4989158;28;20620;-66
2023/03/09 02:15:35;;;;;;;0.50;0.50;;;10.60;99.90;;;10.52;100.00;98178.72;4990920;28;20624;-66
2023/03/09 02:18:02;;;;;;;0.43;0.43;;;10.50;99.90;;;10.43;100.00;98193.56;4990795;28;21103;-67
2023/03/09 02:21:00;;;;;;;0.50;0.50;;;10.40;99.90;;;10.37;100.00;98202.03;4992215;28;20725;-67
2023/03/09 02:23:38;;;;;;;0.43;0.43;;;10.30;99.90;;;10.34;100.00;98210.19;4989124;28;20626;-67
2023/03/09 02:26:08;;;;;;;0.40;0.40;;;10.30;99.90;;;10.33;100.00;98208.56;5006970;28;20658;-67
2023/03/09 02:28:35;;;;;;;1.17;0.53;;;10.30;99.90;;;10.34;100.00;98219.81;4990153;28;20622;-68
2023/03/09 02:31:02;;;;;;;0.40;0.40;;;10.30;99.90;;;10.36;100.00;98217.84;5006974;28;21169;-67
2023/03/09 02:33:30;;;;;;;5.00;0.63;;;10.40;99.90;;;10.40;100.00;98239.97;5006011;28;20614;-66
2023/03/09 02:36:00;;;;;;;0.27;0.27;;;10.40;99.90;;;10.41;100.00;98236.41;4991461;28;20677;-68
2023/03/09 02:38:27;;;;;;;0.60;0.60;;;10.40;99.90;;;10.44;100.00;98249.09;4989647;28;20643;-68
2023/03/09 02:40:58;;;;;;;0.30;0.30;;;10.40;99.90;;;10.43;100.00;98256.13;4986048;28;20642;-67
2023/03/09 02:43:36;;;;;;;0.30;0.30;;;10.40;99.90;;;10.48;100.00;98261.63;4978755;28;20733;-66
2023/03/09 02:46:03;;;;;;;0.30;0.30;;;10.40;99.90;;;10.52;100.00;98275.16;4989335;28;20654;-68
2023/03/09 02:48:30;;;;;;;0.40;0.40;;;10.50;99.90;;;10.51;100.00;98276.13;4990043;28;20670;-68
2023/03/09 02:50:57;;;;;;;0.30;0.30;;;10.50;99.90;;;10.52;100.00;98286.38;4991218;28;20722;-67
2023/03/09 02:53:25;;;;;;;0.50;0.50;;;10.50;99.90;;;10.54;100.00;98296.66;4990352;28;20603;-67
2023/03/09 02:55:52;;;;;;;0.43;0.43;;;10.50;99.90;;;10.56;100.00;98295.50;5006457;28;20629;-66
2023/03/09 02:58:18;;;;;;;0.40;0.40;;;10.60;99.90;;;10.57;100.00;98306.75;4991895;28;20642;-68
2023/03/09 03:00:45;;;;;;;0.50;0.50;;;10.60;99.90;;;10.56;100.00;98308.53;4991989;28;20626;-67
2023/03/09 03:03:12;;;;;;;0.50;0.50;;;10.60;99.90;;;10.54;100.00;98309.69;4991054;28;20638;-66
2023/03/09 03:05:39;;;;;;;0.23;0.23;;;10.50;99.90;;;10.53;100.00;98316.69;4989168;28;20664;-68
2023/03/09 03:08:06;;;;;;;0.50;0.50;;;10.50;99.90;;;10.55;100.00;98322.56;4987608;28;20748;-68
2023/03/09 03:10:33;;;;;;;0.40;0.40;;;10.50;99.90;;;10.60;100.00;98335.94;4994906;28;20631;-67
2023/03/09 03:13:00;;;;;;;0.60;0.40;;;10.60;99.90;;;10.55;100.00;98332.16;5003590;28;21205;-66
2023/03/09 03:15:27;;;;;;;0.40;0.40;;;10.60;99.90;;;10.55;100.00;98340.81;4991392;28;20642;-67
2023/03/09 03:17:54;;;;;;;0.30;0.30;;;10.50;99.90;;;10.55;100.00;98347.81;4991814;28;20681;-67
2023/03/09 03:20:21;;;;;;;0.93;0.53;;;10.50;99.90;;;10.50;100.00;98345.69;4993566;28;20610;-66
2023/03/09 03:22:48;;;;;;;0.47;0.47;;;10.50;99.90;;;10.47;100.00;98361.69;5008260;28;20630;-67
2023/03/09 03:25:16;;;;;;;0.30;0.30;;;10.40;99.90;;;10.45;100.00;98363.66;4993806;28;20716;-67
2023/03/09 03:27:43;;;;;;;0.50;0.40;;;10.40;99.90;;;10.46;100.00;98365.25;5004753;28;20691;-67
2023/03/09 03:30:12;;;;;;;0.40;0.40;;;10.50;99.90;;;10.47;100.00;98371.28;5000298;28;20638;-65
2023/03/09 03:32:39;;;;;;;0.53;0.47;;;10.40;99.90;;;10.48;100.00;98378.13;4994493;28;20615;-66
2023/03/09 03:35:07;;;;;;;0.30;0.30;;;10.50;99.90;;;10.46;100.00;98380.91;4993899;28;20649;-66
2023/03/09 03:37:34;;;;;;;0.47;0.47;;;10.40;99.90;;;10.50;100.00;98386.63;4995206;28;20626;-66
2023/03/09 03:40:00;;;;;;;0.60;0.60;;;10.50;99.90;;;10.49;100.00;98393.63;4991994;28;20641;-66
2023/03/09 03:42:27;;;;;;;0.90;0.90;;;10.50;99.90;;;10.50;100.00;98405.66;4991947;28;20642;-68
2023/03/09 03:44:54;;;;;;;0.70;0.70;;;10.50;99.90;;;10.54;100.00;98414.00;4984291;28;20641;-67
2023/03/09 03:47:21;;;;;;;0.57;0.57;;;10.50;99.90;;;10.54;100.00;98427.81;4993432;28;20618;-67
2023/03/09 03:49:48;;;;;;;0.80;0.57;;;10.50;99.90;;;10.53;100.00;98436.63;4993750;28;20851;-66
2023/03/09 03:52:15;;;;;;;0.60;0.60;;;10.50;99.90;;;10.53;100.00;98444.44;4993738;28;20688;-66
2023/03/09 03:54:42;;;;;;;0.90;0.90;;;10.50;99.90;;;10.50;100.00;98454.41;4990676;28;20672;-68
2023/03/09 03:57:08;;;;;;;1.23;0.73;;;10.50;99.90;;;10.43;100.00;98454.22;4982256;28;21210;-66
2023/03/09 03:59:35;;;;;;;1.37;0.70;;;10.40;99.90;;;10.44;100.00;98455.84;4974454;28;21002;-66
2023/03/09 04:02:02;;;;;;;2.67;1.33;;;10.40;99.90;;;10.44;100.00;98463.66;4993038;28;20618;-66
2023/03/09 04:04:29;;;;;;;0.70;0.53;;;10.40;99.90;;;10.47;100.00;98471.19;4996920;28;20638;-66
2023/03/09 04:06:56;;;;;;;2.97;1.07;;;10.40;99.90;;;10.47;100.00;98467.75;4994489;28;20681;-66
2023/03/09 04:09:23;;;;;;;0.70;0.70;;;10.40;99.90;;;10.46;100.00;98487.78;4992146;28;20650;-66
2023/03/09 04:11:50;;;;;;;0.80;0.80;;;10.50;99.90;;;10.49;100.00;98505.72;4992510;28;20638;-67
2023/03/09 04:14:17;;;;;;;0.40;0.40;;;10.40;99.90;;;10.51;99.62;98505.53;4988466;28;20642;-66
2023/03/09 04:16:44;;;;;;;0.80;0.80;;;10.40;99.90;;;10.56;99.82;98508.50;4994820;28;20636;-66
2023/03/09 04:19:11;;;;;;;1.50;0.77;;;10.50;99.90;;;10.57;98.92;98508.31;4985273;28;20654;-66
2023/03/09 04:21:37;;;;;;;1.37;1.10;;;10.60;99.90;;;10.57;98.36;98510.13;5007005;28;20676;-66
2023/03/09 04:24:05;;;;;;;1.13;1.07;;;10.60;99.90;;;10.59;98.42;98515.97;4996558;28;21013;-67
2023/03/09 04:26:32;;;;;;;1.00;1.00;;;10.60;99.90;;;10.58;97.67;98525.63;4991817;28;20753;-66
2023/03/09 04:28:59;;;;;;;1.10;1.10;;;10.60;99.90;;;10.55;97.96;98533.75;4991988;28;20658;-66
2023/03/09 04:31:25;;;;;;;1.07;1.07;;;10.50;99.90;;;10.55;97.54;98525.94;5008165;28;20606;-66
2023/03/09 04:33:52;;;;;;;1.20;1.20;;;10.50;99.90;;;10.53;97.25;98529.66;5007502;28;20633;-67
2023/03/09 04:36:19;;;;;;;0.77;0.77;;;10.50;99.90;;;10.51;98.05;98549.88;5012469;28;20679;-67
2023/03/09 04:38:46;;;;;;;0.80;0.80;;;10.50;99.90;;;10.51;97.62;98557.69;4996639;28;20757;-64
2023/03/09 04:41:13;;;;;;;1.30;1.20;;;10.40;99.90;;;10.50;97.06;98559.47;4987419;28;20655;-67
2023/03/09 04:43:40;;;;;;;1.40;1.30;;;10.40;99.90;;;10.53;97.38;98563.56;4980603;28;21104;-67
2023/03/09 04:46:08;;;;;;;1.47;1.47;;;10.50;99.90;;;10.58;96.53;98561.31;4983837;28;20666;-67
2023/03/09 04:48:35;;;;;;;1.50;1.40;;;10.50;99.90;;;10.59;96.93;98581.16;5014874;22;20689;-66
2023/03/09 04:51:02;;;;;;;1.90;1.80;;;10.60;99.90;;;10.59;97.03;98596.81;5031572;28;20612;-66
2023/03/09 04:53:29;;;;;;;1.53;1.00;;;10.50;99.90;;;10.55;97.52;98578.06;5030857;28;20612;-66
2023/03/09 04:55:56;;;;;;;1.30;1.20;;;10.50;99.90;;;10.55;96.86;98583.28;5030865;28;20724;-66
2023/03/09 04:58:22;;;;;;;1.33;1.23;;;10.50;99.90;;;10.53;97.23;98585.25;5031210;28;21293;-66
2023/03/09 05:00:49;;;;;;;1.90;1.30;;;10.50;99.90;;;10.54;95.12;98593.88;5031021;28;20640;-66
2023/03/09 05:03:16;;;;;;;1.70;1.60;;;10.50;99.90;;;10.51;95.08;98592.41;5031763;28;20616;-66
2023/03/09 05:05:43;;;;;;;3.43;1.63;;;10.50;99.90;;;10.48;95.57;98597.09;5021255;28;20669;-66
2023/03/09 05:08:10;;;;;;;1.70;1.60;;;10.40;99.90;;;10.44;96.44;98604.44;5008134;28;20642;-66
2023/03/09 05:10:37;;;;;;;3.80;1.20;;;10.40;99.90;;;10.44;95.89;98625.28;5021346;28;20636;-66
2023/03/09 05:13:04;;;;;;;1.27;0.50;;;10.40;99.90;;;10.43;94.60;98635.88;5026305;28;20635;-64
2023/03/09 05:15:31;;;;;;;1.17;0.83;;;10.40;99.90;;;10.46;95.30;98643.38;5030777;28;20659;-66
2023/03/09 05:17:58;;;;;;;2.90;1.27;;;10.40;99.90;;;10.49;94.92;98645.69;5030802;28;20632;-66
2023/03/09 05:20:26;;;;;;;0.70;0.70;;;10.50;99.90;;;10.52;94.65;98653.19;5018341;28;21002;-66
2023/03/09 05:22:54;;;;;;;1.40;0.90;;;10.50;99.90;;;10.53;93.72;98637.38;5012064;28;20617;-66
2023/03/09 05:25:22;;;;;;;1.23;0.50;;;10.50;99.90;;;10.56;93.16;98641.47;5010572;28;20640;-65
2023/03/09 05:27:49;;;;;;;1.17;1.07;;;10.50;99.90;;;10.56;92.22;98637.06;5011757;28;20622;-63
2023/03/09 05:30:17;;;;;;;1.07;1.03;;;10.50;99.90;;;10.59;92.29;98644.56;5010460;28;20621;-65
2023/03/09 05:32:44;;;;;;;6.63;1.50;;;10.60;99.90;;;10.59;91.54;98656.78;5011269;28;21176;-66
2023/03/09 05:35:11;;;;;;;5.10;1.50;;;10.60;99.90;;;10.62;91.27;98651.28;5024850;28;21034;-65
2023/03/09 05:37:38;;;;;;;1.17;1.07;;;10.60;99.90;;;10.58;90.58;98635.13;5031055;28;20613;-66
2023/03/09 05:40:07;;;;;;;4.13;1.70;;;10.60;99.90;;;10.61;90.79;98649.63;5021754;28;21197;-65
2023/03/09 05:42:34;;;;;;;1.43;1.30;;;10.50;99.90;;;10.59;91.33;98649.78;5009635;28;20617;-66
2023/03/09 05:45:03;;;;;;;1.30;1.00;;;10.60;99.90;;;10.59;91.38;98652.41;5014862;28;20638;-64
2023/03/09 05:47:31;;;;;;;6.50;1.53;;;10.60;99.90;;;10.57;92.10;98670.00;5026157;28;20977;-65
2023/03/09 05:49:58;;;;;;;1.10;1.00;;;10.50;99.90;;;10.59;92.19;98677.66;5010460;28;21016;-65
2023/03/09 05:52:25;;;;;;;2.60;1.10;;;10.60;99.90;;;10.59;91.95;98669.81;5024787;28;20647;-65
2023/03/09 05:54:51;;;;;;;1.33;1.10;;;10.50;99.90;;;10.57;92.13;98683.03;5030901;28;20662;-62
2023/03/09 05:57:18;;;;;;;2.23;1.10;;;10.60;99.90;;;10.57;92.95;98680.41;5016639;28;21209;-66
2023/03/09 05:59:47;;;;;;;7.40;1.30;;;10.60;99.90;;;10.55;93.47;98682.38;5011290;28;20658;-66
2023/03/09 06:02:14;;;;;;;2.97;1.40;;;10.60;99.90;;;10.55;94.47;98684.97;5024134;28;20686;-66
2023/03/09 06:04:41;;;;;;;2.97;1.60;;;10.60;99.90;;;10.54;94.72;98691.16;5018359;28;20679;-65
2023/03/09 06:07:08;;;;;;;2.00;0.93;;;10.60;99.90;;;10.53;94.21;98686.94;5010940;28;20771;-65
2023/03/09 06:09:35;;;;;;;5.20;1.33;;;10.50;99.90;;;10.51;94.49;98696.69;5009929;28;20657;-66
2023/03/09 06:12:02;;;;;;;1.67;0.90;;;10.50;99.90;;;10.48;94.09;98696.19;5020073;28;21070;-65
2023/03/09 06:14:29;;;;;;;3.60;1.20;;;10.50;99.90;;;10.47;93.72;98703.19;5020845;28;20640;-66
2023/03/09 06:16:57;;;;;;;2.57;1.10;;;10.50;99.90;;;10.48;94.18;98704.81;5008943;28;20682;-66
2023/03/09 06:19:24;;;;;;;2.13;1.17;;;10.50;99.90;;;10.51;94.15;98707.13;5009514;28;20649;-66
2023/03/09 06:21:51;;;;;;;3.37;1.30;;;10.50;99.90;;;10.53;93.71;98707.78;5021139;28;20641;-66
2023/03/09 06:24:18;;;;;;;1.50;1.30;;;10.60;99.90;;;10.52;93.87;98706.13;5011305;28;20705;-66
2023/03/09 06:26:45;;;;;;;5.87;1.40;;;10.50;99.90;;;10.52;93.60;98711.34;5025772;28;20668;-66
2023/03/09 06:29:12;;;;;;;1.33;1.10;;;10.50;99.90;;;10.56;94.14;98710.06;5028178;28;20671;-65
2023/03/09 06:31:39;;;;;;;1.70;1.20;;;10.60;99.90;;;10.60;93.75;98715.81;5010173;28;20688;-67
2023/03/09 06:34:06;;;;;;;0.70;0.70;;;10.60;99.90;;;10.61;94.38;98718.25;5010772;28;20621;-66
2023/03/09 06:36:34;;;;;;;5.20;1.57;;;10.60;99.90;;;10.62;93.99;98726.91;5009973;28;20637;-65
2023/03/09 06:39:01;;;;;;;3.43;1.10;;;10.60;99.90;;;10.62;94.26;98727.72;5017407;28;21256;-66
2023/03/09 06:41:31;;;;;;;1.40;1.30;;;10.60;99.90;;;10.64;93.32;98728.38;4998848;28;20677;-66
2023/03/09 06:43:59;;;;;;;3.23;1.30;;;10.60;99.90;;;10.69;93.97;98731.31;5009409;28;20649;-66
2023/03/09 06:46:26;;;;;;;1.43;0.90;;;10.70;99.90;;;10.69;94.01;98744.34;5015938;28;20671;-66
2023/03/09 06:48:53;;;;;;;2.53;1.27;;;10.70;99.90;;;10.68;94.23;98750.56;5011065;28;20665;-66
2023/03/09 06:51:20;;;;;;;2.90;1.03;;;10.70;99.90;;;10.69;94.32;98757.41;5014946;28;20636;-66
2023/03/09 06:53:47;;;;;;;1.30;1.20;;;10.70;99.90;;;10.68;94.26;98761.00;5022161;28;20630;-66
2023/03/09 06:56:14;;;;;;;1.33;1.23;;;10.70;99.90;;;10.68;94.34;98770.59;5033226;28;20612;-65
2023/03/09 06:58:41;;;;;;;2.60;1.33;;;10.60;99.90;;;10.69;95.10;98774.84;5015334;28;20667;-66
2023/03/09 07:01:10;;;;;;;3.20;1.40;;;10.70;99.90;;;10.70;95.01;98774.69;5028973;28;20612;-66
2023/03/09 07:03:39;;;;;;;1.53;1.13;;;10.70;99.90;;;10.69;95.19;98783.47;5012935;28;20751;-65
2023/03/09 07:06:07;;;;;;;0.50;0.50;;;10.70;99.90;;;10.71;95.58;98781.53;5009658;28;20680;-65
2023/03/09 07:08:33;;;;;;;1.53;1.17;;;10.70;99.90;;;10.75;95.49;98779.44;5015430;28;21118;-65
2023/03/09 07:11:01;;;;;;;1.43;1.20;;;10.70;99.90;;;10.77;95.86;98785.31;5018825;28;20633;-65
2023/03/09 07:13:29;;;;;;;1.37;0.97;;;10.70;99.90;;;10.84;95.92;98797.56;5022883;28;20784;-66
2023/03/09 07:15:56;;;;;;;0.93;0.83;;;10.80;99.90;;;10.90;94.50;98803.97;5032037;28;20924;-66
2023/03/09 07:18:23;;;;;;;1.07;0.90;;;10.90;99.90;;;10.94;94.99;98807.91;5047923;28;20640;-65
2023/03/09 07:20:50;;;;;;;1.00;0.83;;;11.00;99.90;;;10.97;93.90;98820.63;5031825;28;20634;-66
2023/03/09 07:23:17;;;;;;;0.80;0.80;;;11.00;99.90;;;10.98;94.95;98821.44;5033098;28;20615;-65
2023/03/09 07:25:44;;;;;;;1.60;1.00;;;10.90;99.90;;;11.05;94.68;98825.91;5013135;28;20640;-67
2023/03/09 07:28:11;;;;;;;2.23;0.70;;;11.00;99.90;;;11.16;94.00;98822.97;5013368;28;20680;-66
2023/03/09 07:30:38;;;;;;;2.10;0.77;;;11.10;99.90;;;11.31;94.20;98826.63;5034693;28;20644;-66
2023/03/09 07:33:05;;;;;;;0.47;0.47;;;11.30;99.90;;;11.53;92.82;98831.28;5012711;28;20683;-66
2023/03/09 07:35:32;;;;;;;1.50;0.73;;;11.50;99.90;;;11.65;91.00;98840.44;5028457;28;20963;-66
2023/03/09 07:37:59;;;;;;;0.97;0.87;;;11.60;99.90;;;11.84;90.78;98857.63;5017669;28;20652;-63
2023/03/09 07:40:26;;;;;;;1.33;0.73;;;11.80;99.90;;;12.01;88.74;98853.28;5022933;28;20646;-66
2023/03/09 07:42:53;;;;;;;0.50;0.50;;;12.00;99.90;;;12.34;87.43;98852.28;5012334;28;20634;-64
2023/03/09 07:45:21;;;;;;;0.60;0.60;;;12.30;99.90;;;12.64;85.73;98861.25;5016533;28;20641;-65
2023/03/09 07:47:49;;;;;;;0.77;0.60;;;12.60;99.90;;;12.75;83.68;98858.28;5015146;28;20669;-66
2023/03/09 07:50:17;;;;;;;0.73;0.60;;;12.80;99.90;;;12.71;83.72;98868.28;5032292;28;21022;-66
2023/03/09 07:52:44;;;;;;;0.47;0.43;;;12.80;99.90;;;12.55;84.30;98872.69;5020454;28;20639;-66
2023/03/09 07:55:12;;;;;;;1.90;1.00;;;12.60;99.90;;;12.40;85.36;98876.00;5013566;28;20684;-66
2023/03/09 07:57:39;;;;;;;0.60;0.60;;;12.50;99.90;;;12.32;86.45;98868.16;5006154;28;21271;-66
2023/03/09 08:00:12;;;;;;;0.70;0.60;;;12.40;99.90;;;12.34;87.24;98876.66;5008249;28;20638;-66
2023/03/09 08:02:40;;;;;;;3.30;0.60;;;12.40;99.90;;;12.43;87.38;98867.84;5032335;28;20632;-67
2023/03/09 08:05:10;;;;;;;0.40;0.40;;;12.50;99.90;;;12.44;86.84;98885.13;5032419;28;21246;-66
2023/03/09 08:07:37;;;;;;;1.23;0.70;;;12.50;99.90;;;12.41;86.57;98882.84;5030301;28;21057;-66
2023/03/09 08:10:05;;;;;;;1.43;0.60;;;12.50;99.90;;;12.30;86.70;98875.34;5019929;28;20640;-66
2023/03/09 08:12:32;;;;;;;0.83;0.53;;;12.40;99.90;;;12.19;87.27;98888.75;5013584;28;20643;-66
2023/03/09 08:14:58;;;;;;;1.13;0.80;;;12.20;99.90;;;12.08;87.78;98899.50;5015537;28;21521;-67
2023/03/09 08:17:25;;;;;;;0.53;0.53;;;12.10;99.90;;;11.97;87.45;98897.19;5011660;28;20617;-67
2023/03/09 08:19:52;;;;;;;0.50;0.50;;;12.00;99.90;;;11.96;88.79;98895.56;5025868;28;20663;-66
2023/03/09 08:22:19;;;;;;;0.53;0.53;;;12.00;99.90;;;11.97;88.55;98899.81;5032637;28;21056;-66
2023/03/09 08:24:46;;;;;;;2.30;0.67;;;12.00;99.90;;;11.97;87.54;98896.41;5026712;28;20632;-65
2023/03/09 08:27:13;;;;;;;0.97;0.60;;;12.00;99.90;;;11.95;88.12;98898.31;5031095;28;20662;-65
2023/03/09 08:29:39;;;;;;;0.60;0.60;;;12.00;99.90;;;11.92;88.37;98907.34;5018527;28;21078;-66
2023/03/09 08:32:09;;;;;;;0.50;0.50;;;11.90;99.90;;;11.93;87.54;98915.97;5006882;28;20633;-66
2023/03/09 08:34:37;;;;;;;0.90;0.60;;;11.90;99.90;;;11.90;88.15;98914.50;5006004;28;21008;-66
2023/03/09 08:37:04;;;;;;;2.07;0.80;;;11.90;99.90;;;11.93;86.85;98922.00;5017472;28;20632;-65
2023/03/09 08:39:31;;;;;;;0.70;0.70;;;11.90;99.90;;;11.92;86.63;98936.06;5031323;28;20667;-65
2023/03/09 08:41:57;;;;;;;0.50;0.50;;;11.90;99.90;;;11.95;86.98;98934.91;5029161;28;20633;-66
2023/03/09 08:44:24;;;;;;;3.03;0.93;;;11.90;99.90;;;11.98;85.83;98937.22;5030487;28;21041;-64
2023/03/09 08:46:52;;;;;;;3.73;1.00;;;12.00;99.90;;;12.00;85.42;98938.69;5030191;28;20667;-65
2023/03/09 08:49:18;;;;;;;1.93;1.00;;;12.00;99.90;;;11.98;85.79;98956.34;5009382;28;21218;-65
2023/03/09 08:51:45;;;;;;;3.57;1.07;;;12.00;99.90;;;11.99;86.35;98949.31;5013377;28;21458;-66
2023/03/09 08:54:12;;;;;;;3.67;1.20;;;12.00;99.90;;;11.99;86.42;98950.13;5011577;28;20997;-65
2023/03/09 08:56:39;;;;;;;1.47;0.80;;;12.00;99.90;;;12.00;86.02;98949.16;5012898;28;20678;-65
2023/03/09 08:59:06;;;;;;;1.30;1.20;;;12.00;99.90;;;12.05;85.29;98966.97;5011359;28;21057;-66
2023/03/09 09:01:33;;;;;;;2.30;0.93;;;12.00;99.90;;;12.06;85.36;98972.03;4999690;28;21240;-66
2023/03/09 09:04:00;;;;;;;1.80;0.77;;;12.00;99.90;;;12.09;85.66;98976.13;5032839;28;20620;-64
2023/03/09 09:06:28;;;;;;;0.60;0.60;;;12.10;99.90;;;12.10;86.79;98977.75;5030489;28;20604;-65
2023/03/09 09:08:55;;;;;;;1.90;0.90;;;12.10;99.90;;;12.10;86.46;98965.50;5015862;28;20740;-66
2023/03/09 09:11:22;;;;;;;1.10;0.80;;;12.10;99.90;;;12.12;87.19;98981.03;5011550;28;20640;-67
2023/03/09 09:13:52;;;;;;;2.20;0.80;;;12.10;99.90;;;12.13;86.65;98995.75;5011225;28;20675;-63
2023/03/09 09:16:18;;;;;;;2.10;0.80;;;12.10;99.90;;;12.08;85.75;98988.38;5008824;28;21070;-66
2023/03/09 09:18:46;;;;;;;3.80;1.07;;;12.10;99.90;;;12.08;86.89;98984.94;5039901;28;20648;-66
2023/03/09 09:21:15;;;;;;;0.97;0.80;;;12.00;99.90;;;12.09;87.08;98987.41;5029059;28;20613;-66
2023/03/09 09:23:45;;;;;;;2.63;1.10;;;12.10;99.90;;;12.13;87.03;98988.72;5030024;28;20664;-66
2023/03/09 09:26:13;;;;;;;1.10;1.00;;;12.10;99.90;;;12.22;85.68;98997.41;5031409;28;20613;-66
2023/03/09 09:28:40;;;;;;;1.73;0.90;;;12.20;99.90;;;12.28;85.95;98999.38;5029808;28;20763;-66
2023/03/09 09:31:12;;;;;;;1.23;0.80;;;12.20;99.90;;;12.37;85.72;99003.66;5032100;28;20616;-66
2023/03/09 09:33:39;;;;;;;2.53;0.87;;;12.30;99.90;;;12.42;85.43;99009.22;5027845;28;20629;-66
2023/03/09 09:36:16;;;;;;;1.87;0.90;;;12.40;99.90;;;12.42;84.93;99012.66;5012268;28;20609;-66
2023/03/09 09:38:43;;;;;;;0.60;0.60;;;12.40;99.90;;;12.40;85.04;99013.78;5019672;28;20652;-66
2023/03/09 09:41:18;;;;;;;0.60;0.60;;;12.40;99.90;;;12.38;84.52;99016.56;5031695;28;20612;-65
2023/03/09 09:43:50;;;;;;;1.07;0.60;;;12.40;99.90;;;12.42;83.53;99028.34;5030458;28;21179;-66
2023/03/09 09:46:20;;;;;;;1.70;0.80;;;12.40;99.90;;;12.40;83.64;99032.91;4997288;28;21209;-65
2023/03/09 09:48:48;;;;;;;3.53;0.80;;;12.40;99.90;;;12.44;83.50;99036.03;5009575;28;20684;-67
2023/03/09 09:51:46;;;;;;;7.43;1.33;;;12.40;99.90;;;12.45;83.24;99038.50;5014760;28;20640;-66
2023/03/09 09:54:38;;;;;;;2.80;0.97;;;12.40;99.90;;;12.46;83.98;99045.34;5031280;28;20609;-66
2023/03/09 09:57:23;;;;;;;8.20;1.20;;;12.40;99.90;;;12.45;83.29;99042.91;5030161;28;20739;-66
2023/03/09 10:00:16;;;;;;;1.93;0.70;;;12.40;99.90;;;12.48;82.17;99049.63;5029630;28;20635;-66
2023/03/09 10:03:18;;;;;;;1.33;1.03;;;12.40;99.90;;;12.51;82.75;99051.91;5016194;28;21246;-66
2023/03/09 10:06:12;;;;;;;5.87;1.20;;;12.50;99.90;;;12.54;82.41;99048.97;5009705;28;20619;-66
2023/03/09 10:08:54;;;;;;;3.37;1.33;;;12.50;99.90;;;12.57;82.45;99052.06;4999729;28;21233;-66
2023/03/09 10:11:43;;;;;;;0.73;0.70;;;12.50;99.90;;;12.63;82.54;99056.66;4991514;28;20628;-66
2023/03/09 10:14:21;;;;;;;0.90;0.70;;;12.60;99.90;;;12.70;82.65;99052.44;5007068;28;20606;-67
2023/03/09 10:17:00;;;;;;;7.60;1.27;;;12.60;99.90;;;12.78;82.11;99059.44;5008852;28;20636;-67
2023/03/09 10:19:34;;;;;;;5.00;1.70;;;12.70;99.90;;;12.79;81.56;99056.69;5011991;28;20663;-66
2023/03/09 10:22:16;;;;;;;2.47;1.40;;;12.80;99.90;;;12.84;81.11;99061.44;5010907;28;20647;-66
2023/03/09 10:24:47;;;;;;;1.77;1.07;;;12.80;99.90;;;12.91;81.35;99060.63;5014719;28;20634;-66